Time,TemperatureF,DewpointF,PressureIn,WindDirection,WindDirectionDegrees,WindSpeedMPH,WindSpeedGustMPH,Humidity,HourlyPrecipIn,Conditions,Clouds,dailyrainin,SoftwareType,DateUTC
2013-08-10 00:02:00,59.0,53.0,-100.00,North,0,2.0,3.0,81,-99.99,,,-99.99,,2013-08-10 05:02:00,
2013-08-10 00:32:00,58.0,54.0,-100.00,NNW,340,1.0,2.0,88,-99.99,,,-99.99,,2013-08-10 05:32:00,
2013-08-10 00:43:00,58.0,54.0,-100.00,NNW,340,1.0,2.0,88,-99.99,,,-99.99,,2013-08-10 05:43:00,
2013-08-10 00:52:00,58.0,54.0,-100.00,NNW,340,1.0,2.0,88,-99.99,,,-99.99,,2013-08-10 05:52:00,
2013-08-10 01:02:00,58.0,54.0,-100.00,NNW,340,1.0,2.0,88,-99.99,,,-99.99,,2013-08-10 06:02:00,
2013-08-10 01:32:00,58.0,55.0,-100.00,West,265,1.0,2.0,91,-99.99,,,-99.99,,2013-08-10 06:32:00,
2013-08-10 01:44:00,58.0,55.0,-100.00,West,265,1.0,2.0,91,-99.99,,,-99.99,,2013-08-10 06:44:00,
2013-08-10 01:53:00,58.0,55.0,-100.00,West,265,1.0,2.0,91,-99.99,,,-99.99,,2013-08-10 06:53:00,
2013-08-10 02:02:00,58.0,55.0,-100.00,West,265,1.0,2.0,91,-99.99,,,-99.99,,2013-08-10 07:02:00,
2013-08-10 02:12:00,58.0,56.0,-100.00,WSW,240,0.0,0.0,93,-99.99,,,-99.99,,2013-08-10 07:12:00,
2013-08-10 02:33:00,58.0,56.0,-100.00,WSW,240,0.0,0.0,93,-99.99,,,-99.99,,2013-08-10 07:33:00,
2013-08-10 02:43:00,58.0,56.0,-100.00,WSW,240,0.0,0.0,93,-99.99,,,-99.99,,2013-08-10 07:43:00,
2013-08-10 02:52:00,58.0,56.0,-100.00,WSW,240,0.0,0.0,93,-99.99,,,-99.99,,2013-08-10 07:52:00,
2013-08-10 03:01:00,58.0,56.0,-100.00,WSW,240,0.0,0.0,93,-99.99,,,-99.99,,2013-08-10 08:01:00,
2013-08-10 03:11:00,58.0,56.0,-100.00,WSW,250,1.0,1.0,94,-99.99,,,-99.99,,2013-08-10 08:11:00,
2013-08-10 03:32:00,58.0,56.0,-100.00,WSW,250,1.0,1.0,94,-99.99,,,-99.99,,2013-08-10 08:32:00,
2013-08-10 03:43:00,58.0,56.0,-100.00,WSW,250,1.0,1.0,94,-99.99,,,-99.99,,2013-08-10 08:43:00,
2013-08-10 03:53:00,58.0,56.0,-100.00,WSW,250,1.0,1.0,94,-99.99,,,-99.99,,2013-08-10 08:53:00,
2013-08-10 04:02:00,58.0,56.0,-100.00,WSW,250,1.0,1.0,94,-99.99,,,-99.99,,2013-08-10 09:02:00,
2013-08-10 04:10:00,58.0,56.0,-100.00,NNW,340,0.0,0.0,94,-99.99,,,-99.99,,2013-08-10 09:10:00,
2013-08-10 04:32:00,58.0,56.0,-100.00,NNW,340,0.0,0.0,94,-99.99,,,-99.99,,2013-08-10 09:32:00,
2013-08-10 04:43:00,58.0,56.0,-100.00,NNW,340,0.0,0.0,94,-99.99,,,-99.99,,2013-08-10 09:43:00,
2013-08-10 04:52:00,58.0,56.0,-100.00,NNW,340,0.0,0.0,94,-99.99,,,-99.99,,2013-08-10 09:52:00,
2013-08-10 05:02:00,58.0,56.0,-100.00,NNW,340,0.0,0.0,94,-99.99,,,-99.99,,2013-08-10 10:02:00,
2013-08-10 05:11:00,58.0,56.0,-100.00,SSW,210,0.0,2.0,94,-99.99,,,-99.99,,2013-08-10 10:11:00,
2013-08-10 05:33:00,58.0,56.0,-100.00,SSW,210,0.0,2.0,94,-99.99,,,-99.99,,2013-08-10 10:33:00,
2013-08-10 05:44:00,58.0,56.0,-100.00,SSW,210,0.0,2.0,94,-99.99,,,-99.99,,2013-08-10 10:44:00,
2013-08-10 05:53:00,58.0,56.0,-100.00,SSW,210,0.0,2.0,94,-99.99,,,-99.99,,2013-08-10 10:53:00,
2013-08-10 06:02:00,58.0,56.0,-100.00,SSW,210,0.0,2.0,94,-99.99,,,-99.99,,2013-08-10 11:02:00,
2013-08-10 06:11:00,58.0,56.0,-100.00,West,280,0.0,0.0,94,-99.99,,,-99.99,,2013-08-10 11:11:00,
2013-08-10 06:33:00,58.0,56.0,-100.00,West,280,0.0,0.0,94,-99.99,,,-99.99,,2013-08-10 11:33:00,
2013-08-10 06:43:00,58.0,56.0,-100.00,West,280,0.0,0.0,94,-99.99,,,-99.99,,2013-08-10 11:43:00,
2013-08-10 06:53:00,58.0,56.0,-100.00,West,280,0.0,0.0,94,-99.99,,,-99.99,,2013-08-10 11:53:00,
2013-08-10 07:01:00,58.0,56.0,-100.00,West,280,0.0,0.0,94,-99.99,,,-99.99,,2013-08-10 12:01:00,
2013-08-10 07:11:00,58.0,57.0,-100.00,WNW,290,0.0,0.0,94,-99.99,,,-99.99,,2013-08-10 12:11:00,
2013-08-10 07:32:00,58.0,57.0,-100.00,WNW,290,0.0,0.0,94,-99.99,,,-99.99,,2013-08-10 12:32:00,
2013-08-10 07:42:00,58.0,57.0,-100.00,WNW,290,0.0,0.0,94,-99.99,,,-99.99,,2013-08-10 12:42:00,
2013-08-10 07:52:00,58.0,57.0,-100.00,WNW,290,0.0,0.0,94,-99.99,,,-99.99,,2013-08-10 12:52:00,
2013-08-10 08:01:00,58.0,57.0,-100.00,WNW,290,0.0,0.0,94,-99.99,,,-99.99,,2013-08-10 13:01:00,
2013-08-10 08:32:00,61.0,58.0,-100.00,NW,320,2.0,4.0,89,-99.99,,,-99.99,,2013-08-10 13:32:00,
2013-08-10 08:43:00,61.0,58.0,-100.00,NW,320,2.0,4.0,89,-99.99,,,-99.99,,2013-08-10 13:43:00,
2013-08-10 08:52:00,61.0,58.0,-100.00,NW,320,2.0,4.0,89,-99.99,,,-99.99,,2013-08-10 13:52:00,
2013-08-10 09:02:00,61.0,58.0,-100.00,NW,320,2.0,4.0,89,-99.99,,,-99.99,,2013-08-10 14:02:00,
2013-08-10 09:11:00,65.0,56.0,-100.00,NNW,330,2.0,4.0,72,-99.99,,,-99.99,,2013-08-10 14:11:00,
2013-08-10 09:33:00,65.0,56.0,-100.00,NNW,330,2.0,4.0,72,-99.99,,,-99.99,,2013-08-10 14:33:00,
2013-08-10 09:43:00,65.0,56.0,-100.00,NNW,330,2.0,4.0,72,-99.99,,,-99.99,,2013-08-10 14:43:00,
2013-08-10 09:53:00,65.0,56.0,-100.00,NNW,330,2.0,4.0,72,-99.99,,,-99.99,,2013-08-10 14:53:00,
2013-08-10 10:02:00,65.0,56.0,-100.00,NNW,330,2.0,4.0,72,-99.99,,,-99.99,,2013-08-10 15:02:00,
2013-08-10 10:11:00,68.0,51.0,-100.00,North,0,4.0,6.0,55,-99.99,,,-99.99,,2013-08-10 15:11:00,
2013-08-10 10:34:00,68.0,51.0,-100.00,North,0,4.0,6.0,55,-99.99,,,-99.99,,2013-08-10 15:34:00,
2013-08-10 10:43:00,68.0,51.0,-100.00,North,0,4.0,6.0,55,-99.99,,,-99.99,,2013-08-10 15:43:00,
2013-08-10 10:52:00,68.0,51.0,-100.00,North,0,4.0,6.0,55,-99.99,,,-99.99,,2013-08-10 15:52:00,
2013-08-10 11:01:00,68.0,51.0,-100.00,North,0,4.0,6.0,55,-99.99,,,-99.99,,2013-08-10 16:01:00,
2013-08-10 11:11:00,72.0,51.0,-100.00,NW,310,2.0,7.0,47,-99.99,,,-99.99,,2013-08-10 16:11:00,
2013-08-10 11:32:00,72.0,51.0,-100.00,NW,310,2.0,7.0,47,-99.99,,,-99.99,,2013-08-10 16:32:00,
2013-08-10 11:43:00,72.0,51.0,-100.00,NW,310,2.0,7.0,47,-99.99,,,-99.99,,2013-08-10 16:43:00,
2013-08-10 11:53:00,72.0,51.0,-100.00,NW,310,2.0,7.0,47,-99.99,,,-99.99,,2013-08-10 16:53:00,
2013-08-10 12:02:00,72.0,51.0,-100.00,NW,310,2.0,7.0,47,-99.99,,,-99.99,,2013-08-10 17:02:00,
2013-08-10 12:10:00,71.0,49.0,-100.00,SSW,210,2.0,6.0,47,-99.99,,,-99.99,,2013-08-10 17:10:00,
2013-08-10 12:33:00,71.0,49.0,-100.00,SSW,210,2.0,6.0,47,-99.99,,,-99.99,,2013-08-10 17:33:00,
2013-08-10 12:43:00,71.0,49.0,-100.00,SSW,210,2.0,6.0,47,-99.99,,,-99.99,,2013-08-10 17:43:00,
2013-08-10 12:52:00,71.0,49.0,-100.00,SSW,210,2.0,6.0,47,-99.99,,,-99.99,,2013-08-10 17:52:00,
2013-08-10 13:01:00,71.0,49.0,-100.00,SSW,210,2.0,6.0,47,-99.99,,,-99.99,,2013-08-10 18:01:00,
2013-08-10 13:32:00,70.0,50.0,-100.00,NW,310,4.0,7.0,48,-99.99,,,-99.99,,2013-08-10 18:32:00,
2013-08-10 13:44:00,70.0,50.0,-100.00,NW,310,4.0,7.0,48,-99.99,,,-99.99,,2013-08-10 18:44:00,
2013-08-10 13:52:00,70.0,50.0,-100.00,NW,310,4.0,7.0,48,-99.99,,,-99.99,,2013-08-10 18:52:00,
2013-08-10 14:02:00,70.0,50.0,-100.00,NW,310,4.0,7.0,48,-99.99,,,-99.99,,2013-08-10 19:02:00,
2013-08-10 14:10:00,74.0,47.0,-100.00,NW,315,6.0,8.0,39,-99.99,,,-99.99,,2013-08-10 19:10:00,
2013-08-10 14:11:00,70.0,50.0,-100.00,NW,310,4.0,7.0,48,-99.99,,,-99.99,,2013-08-10 19:11:00,
2013-08-10 14:33:00,74.0,47.0,-100.00,NW,315,6.0,8.0,39,-99.99,,,-99.99,,2013-08-10 19:33:00,
2013-08-10 14:44:00,74.0,47.0,-100.00,NW,315,6.0,8.0,39,-99.99,,,-99.99,,2013-08-10 19:44:00,
2013-08-10 14:53:00,74.0,47.0,-100.00,NW,315,6.0,8.0,39,-99.99,,,-99.99,,2013-08-10 19:53:00,
2013-08-10 15:02:00,74.0,47.0,-100.00,NW,315,6.0,8.0,39,-99.99,,,-99.99,,2013-08-10 20:02:00,
2013-08-10 15:11:00,71.0,48.0,-100.00,NW,310,3.0,10.0,44,-99.99,,,-99.99,,2013-08-10 20:11:00,
2013-08-10 15:33:00,71.0,48.0,-100.00,NW,310,3.0,10.0,44,-99.99,,,-99.99,,2013-08-10 20:33:00,
2013-08-10 15:43:00,71.0,48.0,-100.00,NW,310,3.0,10.0,44,-99.99,,,-99.99,,2013-08-10 20:43:00,
2013-08-10 15:53:00,71.0,48.0,-100.00,NW,310,3.0,10.0,44,-99.99,,,-99.99,,2013-08-10 20:53:00,
2013-08-10 16:02:00,71.0,48.0,-100.00,NW,310,3.0,10.0,44,-99.99,,,-99.99,,2013-08-10 21:02:00,
2013-08-10 16:11:00,71.0,48.0,-100.00,West,275,6.0,12.0,44,-99.99,,,-99.99,,2013-08-10 21:11:00,
2013-08-10 16:32:00,71.0,48.0,-100.00,West,275,6.0,12.0,44,-99.99,,,-99.99,,2013-08-10 21:32:00,
2013-08-10 16:42:00,71.0,48.0,-100.00,West,275,6.0,12.0,44,-99.99,,,-99.99,,2013-08-10 21:42:00,
2013-08-10 16:52:00,71.0,48.0,-100.00,West,275,6.0,12.0,44,-99.99,,,-99.99,,2013-08-10 21:52:00,
2013-08-10 17:01:00,71.0,48.0,-100.00,West,275,6.0,12.0,44,-99.99,,,-99.99,,2013-08-10 22:01:00,
2013-08-10 17:11:00,73.0,48.0,-100.00,NW,320,3.0,5.0,42,-99.99,,,-99.99,,2013-08-10 22:11:00,
2013-08-10 17:32:00,73.0,48.0,-100.00,NW,320,3.0,5.0,42,-99.99,,,-99.99,,2013-08-10 22:32:00,
2013-08-10 17:43:00,73.0,48.0,-100.00,NW,320,3.0,5.0,42,-99.99,,,-99.99,,2013-08-10 22:43:00,
2013-08-10 17:52:00,73.0,48.0,-100.00,NW,320,3.0,5.0,42,-99.99,,,-99.99,,2013-08-10 22:52:00,
2013-08-10 18:01:00,73.0,48.0,-100.00,NW,320,3.0,5.0,42,-99.99,,,-99.99,,2013-08-10 23:01:00,
2013-08-10 18:10:00,73.0,49.0,-100.00,North,0,3.0,7.0,43,-99.99,,,-99.99,,2013-08-10 23:10:00,
2013-08-10 18:33:00,73.0,49.0,-100.00,North,0,3.0,7.0,43,-99.99,,,-99.99,,2013-08-10 23:33:00,
2013-08-10 18:43:00,73.0,49.0,-100.00,North,0,3.0,7.0,43,-99.99,,,-99.99,,2013-08-10 23:43:00,
2013-08-10 18:53:00,73.0,49.0,-100.00,North,0,3.0,7.0,43,-99.99,,,-99.99,,2013-08-10 23:53:00,
2013-08-10 19:02:00,73.0,49.0,-100.00,North,0,3.0,7.0,43,-99.99,,,-99.99,,2013-08-11 00:02:00,
2013-08-10 19:32:00,71.0,49.0,-100.00,NNW,335,2.0,4.0,45,-99.99,,,-99.99,,2013-08-11 00:32:00,
2013-08-10 19:42:00,71.0,49.0,-100.00,NNW,335,2.0,4.0,45,-99.99,,,-99.99,,2013-08-11 00:42:00,
2013-08-10 19:52:00,71.0,49.0,-100.00,NNW,335,2.0,4.0,45,-99.99,,,-99.99,,2013-08-11 00:52:00,
2013-08-10 20:01:00,71.0,49.0,-100.00,NNW,335,2.0,4.0,45,-99.99,,,-99.99,,2013-08-11 01:01:00,
2013-08-10 20:32:00,62.0,54.0,-100.00,North,5,1.0,1.0,77,-99.99,,,-99.99,,2013-08-11 01:32:00,
2013-08-10 20:43:00,62.0,54.0,-100.00,North,5,1.0,1.0,77,-99.99,,,-99.99,,2013-08-11 01:43:00,
2013-08-10 20:54:00,62.0,54.0,-100.00,North,5,1.0,1.0,77,-99.99,,,-99.99,,2013-08-11 01:54:00,
2013-08-10 21:02:00,62.0,54.0,-100.00,North,5,1.0,1.0,77,-99.99,,,-99.99,,2013-08-11 02:02:00,
2013-08-10 21:11:00,62.0,54.0,-100.00,North,5,1.0,1.0,77,-99.99,,,-99.99,,2013-08-11 02:11:00,
2013-08-10 21:32:00,57.0,55.0,-100.00,NW,325,0.0,0.0,93,-99.99,,,-99.99,,2013-08-11 02:32:00,
2013-08-10 21:43:00,57.0,55.0,-100.00,NW,325,0.0,0.0,93,-99.99,,,-99.99,,2013-08-11 02:43:00,
2013-08-10 21:57:00,57.0,55.0,-100.00,NW,325,0.0,0.0,93,-99.99,,,-99.99,,2013-08-11 02:57:00,
2013-08-10 22:10:00,55.0,54.0,-100.00,North,0,0.0,0.0,95,-99.99,,,-99.99,,2013-08-11 03:10:00,
2013-08-10 22:36:00,55.0,54.0,-100.00,North,0,0.0,0.0,95,-99.99,,,-99.99,,2013-08-11 03:36:00,
2013-08-10 22:57:00,55.0,54.0,-100.00,North,0,0.0,0.0,95,-99.99,,,-99.99,,2013-08-11 03:57:00,
2013-08-10 23:01:00,55.0,54.0,-100.00,North,0,0.0,0.0,95,-99.99,,,-99.99,,2013-08-11 04:01:00,
2013-08-10 23:32:00,53.0,52.0,-100.00,North,0,0.0,0.0,96,-99.99,,,-99.99,,2013-08-11 04:32:00,
2013-08-10 23:43:00,53.0,52.0,-100.00,North,0,0.0,0.0,96,-99.99,,,-99.99,,2013-08-11 04:43:00,
2013-08-10 23:53:00,53.0,52.0,-100.00,North,0,0.0,0.0,96,-99.99,,,-99.99,,2013-08-11 04:53:00,